AirNav  
 
 1252 users online  

MA36 Snow Airport
Ipswich, Massachusetts, USA

GOING TO IPSWICH?


FAA INFORMATION EFFECTIVE 25 MARCH 2021

Location

FAA Identifier: MA36
Lat/Long: 42-39-59.3370N 070-51-10.6800W
42-39.988950N 070-51.178000W
42.6664825,-70.8529667
(estimated)
Elevation: 61 ft. / 18.6 m (surveyed)
Variation: 16W (1985)
From city: 1 mile SW of IPSWICH, MA
Time zone: UTC -4 (UTC -5 during Standard Time)
Zip code: 01938

Airport Operations

Airport use: Private use. Permission required prior to landing
Activation date: 09/1950
Control tower: no
ARTCC: BOSTON CENTER
FSS: BRIDGEPORT FLIGHT SERVICE STATION
Attendance: CONTINUOUS
Wind indicator: no
Segmented circle: no

Airport Communications

WX ASOS at BVY (6 nm SW): 119.2 (978-921-5042)
WX ASOS at LWM (12 nm W): PHONE 978-687-8017
WX ASOS at BOS (19 nm S): 135.0 (617-567-5762)

Nearby radio navigation aids

VOR radial/distance  VOR name  Freq  Var
LWMr128/11.6LAWRENCE VOR/DME112.5015W
BOSr034/19.5BOSTON VOR/DME112.7016W
PSMr198/25.1PEASE VOR/DME116.5016W
MHTr133/25.8MANCHESTER VOR/DME114.4015W

 
NDB name  Hdg/Dist  Freq  Var  ID
ROLLINS198/33.226016WESG . ... --.

Airport Services

Fuel available: 100LL
Airframe service: NONE
Powerplant service: NONE

Runway Information

Runway 4/22

Dimensions: 1600 x 100 ft. / 488 x 30 m
Surface: turf
RUNWAY 4  RUNWAY 22
Traffic pattern: leftleft

Airport Ownership and Management from official FAA records

Ownership: Privately-owned
Owner: CROCKER SNOW
120 TOPSFIELD RD
IPSWICH, MA 01938-1665
Phone 978-395-1961
Manager: CROCKER SNOW
120 TOPSFIELD RD
IPSWICH, MA 01938-1665
Phone 978-356-4422

Airport Operational Statistics

Aircraft based on the field: 1
Single engine airplanes: 1
    

Additional Remarks

FOR CD CTC BOSTON APCH AT 603-594-5554.

Instrument Procedures

There are no published instrument procedures at MA36.

Some nearby airports with instrument procedures:

KBVY - Beverly Regional Airport (6 nm SW)
KLWM - Lawrence Municipal Airport (12 nm W)
KBOS - General Edward Lawrence Logan International Airport (19 nm S)
KBED - Laurence G Hanscom Field Airport (23 nm SW)
KPSM - Portsmouth International Airport at Pease (25 nm N)
 
Loc | Ops | Rwys | IFR | FBO | Links
Com | Nav | Svcs | Stats | Notes
Area around MA36 (Snow Airport)
 
Road maps at: MapQuest Bing Google
 
Aerial photo
No photo
 
Sectional chart

 
Airport distance calculator
Flying to Snow Airport? Find the distance to fly.

From to MA36

Sunrise and sunset
Times for 17-Apr-2021
 Local
(UTC-4)
 Zulu
(UTC)
Morning civil twilight05:3009:30
Sunrise06:0010:00
Sunset19:2623:26
Evening civil twilight19:5623:56

Current date and time
Zulu (UTC)  17-Apr-2021 15:18:45
Local (UTC-4)  17-Apr-2021 11:18:45
 
METAR
KBVY 
6nm SW 
171501Z 33009KT 10SM -RA OVC010 03/02 A2971 RMK AO2 CIG 007V015 P0000 T00330017 $
KLWM 
13nm W 
171501Z 34009KT 10SM -RA BKN013 BKN033 OVC044 04/02 A2974 RMK AO2 P0000 T00390017
KBOS 
19nm S 
171454Z 33012KT 10SM -RA BKN012 OVC018 04/01 A2973 RMK AO2 SLP066 P0002 60003 T00440011 51013
TAF
KBOS 
19nm S 
171425Z 1714/1818 34013G23KT P6SM -SHRA OVC020 FM171800 34012G21KT P6SM VCSH OVC015 FM172000 35010G19KT P6SM OVC025 FM172300 35006KT P6SM OVC040
KBED 
23nm SW 
171120Z 1712/1812 33009KT P6SM VCSH OVC015 FM171400 34009KT P6SM VCSH OVC010 FM171600 34009KT P6SM OVC015 FM172200 34005KT P6SM OVC030 FM180000 35004KT P6SM OVC035 FM180600 00000KT 3SM BR OVC045
KPSM 
24nm N 
171120Z 1712/1812 34010G17KT 4SM -RA BKN007 OVC015 FM171500 33010G17KT P6SM BKN015 OVC025 FM172100 32007KT P6SM BKN050
NOTAMs
Click for the latest NOTAMs
NOTAMs are issued by the DoD/FAA and will open in a separate window not controlled by AirNav.

 

 
 

Would you like to see your business listed on this page?

 If your business provides an interesting product or service to pilots, flight crews, aircraft, or users of the Snow Airport, you should consider listing it here.  To start the listing process, click on the button below
 
Add a business
 

Other Pages about Snow Airport

Update a link
 
Copyright © AirNav, LLC. All rights reserved. Privacy Policy  Contact